Terminal Aerodrome Forecast
Issued by NWS

Home | Current Version | Previous Version | Text Only | Print | Product List | Glossary On
Versions: 1 2 3 4 5 6 7 8 9 10 11 12 13 14 15 16 17 18 19
000
FTUS44 KJAN 110500
TAFHKS
TAF
KHKS 110520Z 1106/1206 VRB03KT P6SM BKN150
     FM111400 30006KT P6SM SCT040 SCT120
     FM112000 35007KT P6SM VCTS BKN040CB BKN100
     FM120100 03003KT P6SM BKN120=

USA.gov is the U.S. government's official web portal to all federal, state and local government web resources and services.